sensor_id;sensor_type;location;lat;lon;timestamp;P1;durP1;ratioP1;P2;durP2;ratioP2
20721;SDS011;10522;52.198;9.890;2023-11-18T00:00:16;23.27;;;15.60;;
20721;SDS011;10522;52.198;9.890;2023-11-18T00:02:42;31.20;;;15.07;;
20721;SDS011;10522;52.198;9.890;2023-11-18T00:05:08;24.67;;;15.63;;
20721;SDS011;10522;52.198;9.890;2023-11-18T00:07:34;24.17;;;16.50;;
20721;SDS011;10522;52.198;9.890;2023-11-18T00:10:00;24.23;;;17.63;;
20721;SDS011;10522;52.198;9.890;2023-11-18T00:12:25;29.97;;;17.83;;
20721;SDS011;10522;52.198;9.890;2023-11-18T00:14:51;28.23;;;16.00;;
20721;SDS011;10522;52.198;9.890;2023-11-18T00:17:17;23.80;;;16.63;;
20721;SDS011;10522;52.198;9.890;2023-11-18T00:19:43;23.03;;;15.57;;
20721;SDS011;10522;52.198;9.890;2023-11-18T00:22:09;25.90;;;16.47;;
20721;SDS011;10522;52.198;9.890;2023-11-18T00:24:37;28.57;;;16.13;;
20721;SDS011;10522;52.198;9.890;2023-11-18T00:27:03;26.23;;;16.60;;
20721;SDS011;10522;52.198;9.890;2023-11-18T00:29:31;21.47;;;15.13;;
20721;SDS011;10522;52.198;9.890;2023-11-18T00:31:58;29.20;;;15.13;;
20721;SDS011;10522;52.198;9.890;2023-11-18T00:34:24;21.67;;;14.87;;
20721;SDS011;10522;52.198;9.890;2023-11-18T00:36:49;21.63;;;14.73;;
20721;SDS011;10522;52.198;9.890;2023-11-18T00:39:15;21.27;;;14.93;;
20721;SDS011;10522;52.198;9.890;2023-11-18T00:41:41;23.50;;;14.73;;
20721;SDS011;10522;52.198;9.890;2023-11-18T00:44:06;23.27;;;15.50;;
20721;SDS011;10522;52.198;9.890;2023-11-18T00:46:33;23.20;;;14.93;;
20721;SDS011;10522;52.198;9.890;2023-11-18T00:49:01;21.97;;;14.17;;
20721;SDS011;10522;52.198;9.890;2023-11-18T00:51:27;27.43;;;14.33;;
20721;SDS011;10522;52.198;9.890;2023-11-18T00:53:54;20.17;;;15.20;;
20721;SDS011;10522;52.198;9.890;2023-11-18T00:56:20;29.00;;;19.40;;
20721;SDS011;10522;52.198;9.890;2023-11-18T00:58:47;24.67;;;17.90;;
20721;SDS011;10522;52.198;9.890;2023-11-18T01:01:13;25.00;;;17.50;;
20721;SDS011;10522;52.198;9.890;2023-11-18T01:03:42;25.60;;;16.67;;
20721;SDS011;10522;52.198;9.890;2023-11-18T01:06:09;28.07;;;18.20;;
20721;SDS011;10522;52.198;9.890;2023-11-18T01:08:34;25.63;;;17.57;;
20721;SDS011;10522;52.198;9.890;2023-11-18T01:11:00;25.40;;;16.33;;
20721;SDS011;10522;52.198;9.890;2023-11-18T01:13:26;27.80;;;16.67;;
20721;SDS011;10522;52.198;9.890;2023-11-18T01:15:51;22.90;;;16.93;;
20721;SDS011;10522;52.198;9.890;2023-11-18T01:18:17;27.73;;;16.37;;
20721;SDS011;10522;52.198;9.890;2023-11-18T01:20:43;25.00;;;16.23;;
20721;SDS011;10522;52.198;9.890;2023-11-18T01:23:08;24.50;;;16.77;;
20721;SDS011;10522;52.198;9.890;2023-11-18T01:25:34;25.20;;;17.50;;
20721;SDS011;10522;52.198;9.890;2023-11-18T01:27:59;25.13;;;17.00;;
20721;SDS011;10522;52.198;9.890;2023-11-18T01:30:25;23.40;;;17.40;;
20721;SDS011;10522;52.198;9.890;2023-11-18T01:32:51;25.67;;;16.07;;
20721;SDS011;10522;52.198;9.890;2023-11-18T01:35:17;24.67;;;18.10;;
20721;SDS011;10522;52.198;9.890;2023-11-18T01:37:44;23.33;;;16.17;;
20721;SDS011;10522;52.198;9.890;2023-11-18T01:40:10;26.87;;;17.70;;
20721;SDS011;10522;52.198;9.890;2023-11-18T01:42:43;22.70;;;15.97;;
20721;SDS011;10522;52.198;9.890;2023-11-18T01:45:11;24.47;;;16.83;;
20721;SDS011;10522;52.198;9.890;2023-11-18T01:47:38;24.70;;;17.07;;
20721;SDS011;10522;52.198;9.890;2023-11-18T01:50:05;25.50;;;16.97;;
20721;SDS011;10522;52.198;9.890;2023-11-18T01:52:33;23.27;;;17.40;;
20721;SDS011;10522;52.198;9.890;2023-11-18T01:54:59;23.70;;;16.87;;
20721;SDS011;10522;52.198;9.890;2023-11-18T01:57:26;24.13;;;16.53;;
20721;SDS011;10522;52.198;9.890;2023-11-18T01:59:52;25.33;;;16.40;;
20721;SDS011;10522;52.198;9.890;2023-11-18T02:02:19;23.13;;;17.37;;
20721;SDS011;10522;52.198;9.890;2023-11-18T02:04:47;25.60;;;17.40;;
20721;SDS011;10522;52.198;9.890;2023-11-18T02:07:14;31.10;;;19.47;;
20721;SDS011;10522;52.198;9.890;2023-11-18T02:09:40;27.97;;;19.77;;
20721;SDS011;10522;52.198;9.890;2023-11-18T02:14:41;29.70;;;18.67;;
20721;SDS011;10522;52.198;9.890;2023-11-18T02:17:10;28.03;;;19.77;;
20721;SDS011;10522;52.198;9.890;2023-11-18T02:19:39;33.03;;;20.07;;
20721;SDS011;10522;52.198;9.890;2023-11-18T02:22:06;29.47;;;19.80;;
20721;SDS011;10522;52.198;9.890;2023-11-18T02:24:32;31.10;;;19.80;;
20721;SDS011;10522;52.198;9.890;2023-11-18T02:27:02;31.00;;;20.67;;
20721;SDS011;10522;52.198;9.890;2023-11-18T02:29:34;32.47;;;21.03;;
20721;SDS011;10522;52.198;9.890;2023-11-18T02:35:18;36.37;;;20.93;;
20721;SDS011;10522;52.198;9.890;2023-11-18T02:37:49;32.63;;;20.57;;
20721;SDS011;10522;52.198;9.890;2023-11-18T02:40:39;35.07;;;21.63;;
20721;SDS011;10522;52.198;9.890;2023-11-18T02:43:08;32.83;;;20.50;;
20721;SDS011;10522;52.198;9.890;2023-11-18T02:45:35;34.67;;;20.83;;
20721;SDS011;10522;52.198;9.890;2023-11-18T02:48:02;31.63;;;20.93;;
20721;SDS011;10522;52.198;9.890;2023-11-18T02:50:31;34.90;;;20.00;;
20721;SDS011;10522;52.198;9.890;2023-11-18T02:52:57;33.43;;;20.13;;
20721;SDS011;10522;52.198;9.890;2023-11-18T02:55:22;31.90;;;20.40;;
20721;SDS011;10522;52.198;9.890;2023-11-18T02:57:49;33.53;;;20.90;;
20721;SDS011;10522;52.198;9.890;2023-11-18T03:00:16;33.63;;;20.67;;
20721;SDS011;10522;52.198;9.890;2023-11-18T03:02:50;31.00;;;20.37;;
20721;SDS011;10522;52.198;9.890;2023-11-18T03:05:17;31.73;;;20.23;;
20721;SDS011;10522;52.198;9.890;2023-11-18T03:07:43;29.23;;;19.27;;
20721;SDS011;10522;52.198;9.890;2023-11-18T03:10:12;28.83;;;18.63;;
20721;SDS011;10522;52.198;9.890;2023-11-18T03:12:46;33.00;;;20.70;;
20721;SDS011;10522;52.198;9.890;2023-11-18T03:15:12;31.00;;;20.27;;
20721;SDS011;10522;52.198;9.890;2023-11-18T03:17:38;30.33;;;19.63;;
20721;SDS011;10522;52.198;9.890;2023-11-18T03:20:04;31.93;;;19.40;;
20721;SDS011;10522;52.198;9.890;2023-11-18T03:22:36;32.47;;;19.43;;
20721;SDS011;10522;52.198;9.890;2023-11-18T03:25:02;31.77;;;19.50;;
20721;SDS011;10522;52.198;9.890;2023-11-18T03:27:30;34.33;;;19.97;;
20721;SDS011;10522;52.198;9.890;2023-11-18T03:29:55;32.13;;;20.27;;
20721;SDS011;10522;52.198;9.890;2023-11-18T03:32:21;36.53;;;21.73;;
20721;SDS011;10522;52.198;9.890;2023-11-18T03:34:46;34.57;;;20.53;;
20721;SDS011;10522;52.198;9.890;2023-11-18T03:37:12;33.63;;;21.33;;
20721;SDS011;10522;52.198;9.890;2023-11-18T03:39:38;32.83;;;19.37;;
20721;SDS011;10522;52.198;9.890;2023-11-18T03:42:03;35.33;;;20.83;;
20721;SDS011;10522;52.198;9.890;2023-11-18T03:44:29;38.63;;;21.20;;
20721;SDS011;10522;52.198;9.890;2023-11-18T03:46:54;32.20;;;19.00;;
20721;SDS011;10522;52.198;9.890;2023-11-18T03:49:20;37.83;;;20.43;;
20721;SDS011;10522;52.198;9.890;2023-11-18T03:51:46;30.97;;;20.03;;
20721;SDS011;10522;52.198;9.890;2023-11-18T03:54:12;42.63;;;22.57;;
20721;SDS011;10522;52.198;9.890;2023-11-18T03:56:38;38.03;;;20.83;;
20721;SDS011;10522;52.198;9.890;2023-11-18T03:59:03;30.80;;;19.47;;
20721;SDS011;10522;52.198;9.890;2023-11-18T04:01:29;35.87;;;20.73;;
20721;SDS011;10522;52.198;9.890;2023-11-18T04:03:55;38.37;;;21.53;;
20721;SDS011;10522;52.198;9.890;2023-11-18T04:06:21;32.20;;;20.53;;
20721;SDS011;10522;52.198;9.890;2023-11-18T04:08:48;38.57;;;22.07;;
20721;SDS011;10522;52.198;9.890;2023-11-18T04:11:14;39.73;;;21.00;;
20721;SDS011;10522;52.198;9.890;2023-11-18T04:13:40;36.00;;;21.63;;
20721;SDS011;10522;52.198;9.890;2023-11-18T04:16:12;37.77;;;21.67;;
20721;SDS011;10522;52.198;9.890;2023-11-18T04:18:40;37.20;;;22.20;;
20721;SDS011;10522;52.198;9.890;2023-11-18T04:21:07;36.50;;;21.63;;
20721;SDS011;10522;52.198;9.890;2023-11-18T04:23:34;34.80;;;19.93;;
20721;SDS011;10522;52.198;9.890;2023-11-18T04:26:03;38.17;;;22.03;;
20721;SDS011;10522;52.198;9.890;2023-11-18T04:28:30;39.37;;;22.43;;
20721;SDS011;10522;52.198;9.890;2023-11-18T04:30:55;41.63;;;22.67;;
20721;SDS011;10522;52.198;9.890;2023-11-18T04:33:21;32.77;;;20.53;;
20721;SDS011;10522;52.198;9.890;2023-11-18T04:35:47;37.23;;;21.30;;
20721;SDS011;10522;52.198;9.890;2023-11-18T04:38:12;34.47;;;21.13;;
20721;SDS011;10522;52.198;9.890;2023-11-18T04:40:38;40.73;;;21.47;;
20721;SDS011;10522;52.198;9.890;2023-11-18T04:43:06;36.90;;;23.03;;
20721;SDS011;10522;52.198;9.890;2023-11-18T04:45:32;32.63;;;20.83;;
20721;SDS011;10522;52.198;9.890;2023-11-18T04:47:59;45.87;;;21.77;;
20721;SDS011;10522;52.198;9.890;2023-11-18T04:50:24;38.57;;;21.50;;
20721;SDS011;10522;52.198;9.890;2023-11-18T04:52:50;36.33;;;21.17;;
20721;SDS011;10522;52.198;9.890;2023-11-18T04:55:15;34.37;;;20.03;;
20721;SDS011;10522;52.198;9.890;2023-11-18T04:57:41;38.50;;;21.00;;
20721;SDS011;10522;52.198;9.890;2023-11-18T05:00:07;36.50;;;20.77;;
20721;SDS011;10522;52.198;9.890;2023-11-18T05:02:37;33.53;;;19.73;;
20721;SDS011;10522;52.198;9.890;2023-11-18T05:05:03;33.97;;;20.13;;
20721;SDS011;10522;52.198;9.890;2023-11-18T05:07:32;41.03;;;21.73;;
20721;SDS011;10522;52.198;9.890;2023-11-18T05:09:58;36.67;;;20.23;;
20721;SDS011;10522;52.198;9.890;2023-11-18T05:12:24;33.73;;;19.77;;
20721;SDS011;10522;52.198;9.890;2023-11-18T05:14:49;37.23;;;21.50;;
20721;SDS011;10522;52.198;9.890;2023-11-18T05:17:15;32.13;;;20.47;;
20721;SDS011;10522;52.198;9.890;2023-11-18T05:19:41;37.03;;;22.37;;
20721;SDS011;10522;52.198;9.890;2023-11-18T05:22:07;34.57;;;21.63;;
20721;SDS011;10522;52.198;9.890;2023-11-18T05:24:33;41.37;;;22.57;;
20721;SDS011;10522;52.198;9.890;2023-11-18T05:26:59;37.50;;;20.50;;
20721;SDS011;10522;52.198;9.890;2023-11-18T05:29:27;41.00;;;22.20;;
20721;SDS011;10522;52.198;9.890;2023-11-18T05:31:53;40.73;;;22.13;;
20721;SDS011;10522;52.198;9.890;2023-11-18T05:34:22;35.67;;;19.73;;
20721;SDS011;10522;52.198;9.890;2023-11-18T05:36:49;43.67;;;22.60;;
20721;SDS011;10522;52.198;9.890;2023-11-18T05:39:19;38.77;;;21.70;;
20721;SDS011;10522;52.198;9.890;2023-11-18T05:41:46;42.67;;;22.37;;
20721;SDS011;10522;52.198;9.890;2023-11-18T05:44:15;42.13;;;23.40;;
20721;SDS011;10522;52.198;9.890;2023-11-18T05:46:44;44.60;;;22.80;;
20721;SDS011;10522;52.198;9.890;2023-11-18T05:49:12;44.57;;;23.27;;
20721;SDS011;10522;52.198;9.890;2023-11-18T05:51:38;47.77;;;24.50;;
20721;SDS011;10522;52.198;9.890;2023-11-18T05:54:08;42.87;;;24.30;;
20721;SDS011;10522;52.198;9.890;2023-11-18T05:56:34;44.70;;;24.90;;
20721;SDS011;10522;52.198;9.890;2023-11-18T05:59:00;42.83;;;21.73;;
20721;SDS011;10522;52.198;9.890;2023-11-18T06:01:28;42.93;;;23.20;;
20721;SDS011;10522;52.198;9.890;2023-11-18T06:03:54;41.07;;;22.60;;
20721;SDS011;10522;52.198;9.890;2023-11-18T06:06:21;39.63;;;22.53;;
20721;SDS011;10522;52.198;9.890;2023-11-18T06:08:47;43.27;;;21.03;;
20721;SDS011;10522;52.198;9.890;2023-11-18T06:11:14;43.27;;;21.93;;
20721;SDS011;10522;52.198;9.890;2023-11-18T06:16:18;45.83;;;22.73;;
20721;SDS011;10522;52.198;9.890;2023-11-18T06:18:46;48.13;;;21.40;;
20721;SDS011;10522;52.198;9.890;2023-11-18T06:23:39;40.80;;;21.90;;
20721;SDS011;10522;52.198;9.890;2023-11-18T06:26:05;39.70;;;21.10;;
20721;SDS011;10522;52.198;9.890;2023-11-18T06:28:31;41.20;;;22.00;;
20721;SDS011;10522;52.198;9.890;2023-11-18T06:30:59;38.83;;;20.30;;
20721;SDS011;10522;52.198;9.890;2023-11-18T06:33:24;42.83;;;24.50;;
20721;SDS011;10522;52.198;9.890;2023-11-18T06:35:52;45.57;;;24.87;;
20721;SDS011;10522;52.198;9.890;2023-11-18T06:38:19;43.13;;;24.50;;
20721;SDS011;10522;52.198;9.890;2023-11-18T06:40:45;44.97;;;23.63;;
20721;SDS011;10522;52.198;9.890;2023-11-18T06:43:11;43.33;;;23.77;;
20721;SDS011;10522;52.198;9.890;2023-11-18T06:45:37;40.60;;;23.03;;
20721;SDS011;10522;52.198;9.890;2023-11-18T06:48:08;42.53;;;22.43;;
20721;SDS011;10522;52.198;9.890;2023-11-18T06:50:34;39.37;;;21.53;;
20721;SDS011;10522;52.198;9.890;2023-11-18T06:53:00;42.27;;;21.97;;
20721;SDS011;10522;52.198;9.890;2023-11-18T06:55:26;39.23;;;21.07;;
20721;SDS011;10522;52.198;9.890;2023-11-18T06:57:52;40.20;;;22.20;;
20721;SDS011;10522;52.198;9.890;2023-11-18T07:00:20;36.03;;;20.40;;
20721;SDS011;10522;52.198;9.890;2023-11-18T07:02:46;38.37;;;21.27;;
20721;SDS011;10522;52.198;9.890;2023-11-18T07:05:12;33.30;;;19.40;;
20721;SDS011;10522;52.198;9.890;2023-11-18T07:07:39;38.03;;;21.20;;
20721;SDS011;10522;52.198;9.890;2023-11-18T07:10:06;40.10;;;20.23;;
20721;SDS011;10522;52.198;9.890;2023-11-18T07:12:32;38.63;;;19.33;;
20721;SDS011;10522;52.198;9.890;2023-11-18T07:14:59;37.60;;;19.17;;
20721;SDS011;10522;52.198;9.890;2023-11-18T07:17:26;32.73;;;17.30;;
20721;SDS011;10522;52.198;9.890;2023-11-18T07:19:51;35.27;;;18.70;;
20721;SDS011;10522;52.198;9.890;2023-11-18T07:22:17;39.50;;;19.73;;
20721;SDS011;10522;52.198;9.890;2023-11-18T07:24:42;41.97;;;21.67;;
20721;SDS011;10522;52.198;9.890;2023-11-18T07:27:08;37.13;;;18.70;;
20721;SDS011;10522;52.198;9.890;2023-11-18T07:29:36;38.23;;;22.10;;
20721;SDS011;10522;52.198;9.890;2023-11-18T07:32:02;40.33;;;22.27;;
20721;SDS011;10522;52.198;9.890;2023-11-18T07:34:30;37.40;;;21.23;;
20721;SDS011;10522;52.198;9.890;2023-11-18T07:36:58;41.17;;;22.07;;
20721;SDS011;10522;52.198;9.890;2023-11-18T07:39:24;41.37;;;21.17;;
20721;SDS011;10522;52.198;9.890;2023-11-18T07:41:54;40.50;;;21.97;;
20721;SDS011;10522;52.198;9.890;2023-11-18T07:44:24;42.90;;;22.57;;
20721;SDS011;10522;52.198;9.890;2023-11-18T07:46:50;37.40;;;21.93;;
20721;SDS011;10522;52.198;9.890;2023-11-18T07:49:15;38.27;;;21.63;;
20721;SDS011;10522;52.198;9.890;2023-11-18T07:51:41;43.37;;;22.00;;
20721;SDS011;10522;52.198;9.890;2023-11-18T07:54:07;36.57;;;22.27;;
20721;SDS011;10522;52.198;9.890;2023-11-18T07:56:34;38.97;;;21.83;;
20721;SDS011;10522;52.198;9.890;2023-11-18T07:59:01;35.20;;;21.20;;
20721;SDS011;10522;52.198;9.890;2023-11-18T08:01:28;39.33;;;21.77;;
20721;SDS011;10522;52.198;9.890;2023-11-18T08:03:54;42.97;;;21.87;;
20721;SDS011;10522;52.198;9.890;2023-11-18T08:06:19;39.90;;;22.07;;
20721;SDS011;10522;52.198;9.890;2023-11-18T08:08:45;46.93;;;23.30;;
20721;SDS011;10522;52.198;9.890;2023-11-18T08:11:12;38.83;;;21.63;;
20721;SDS011;10522;52.198;9.890;2023-11-18T08:13:39;41.43;;;20.87;;
20721;SDS011;10522;52.198;9.890;2023-11-18T08:16:05;42.60;;;22.27;;
20721;SDS011;10522;52.198;9.890;2023-11-18T08:18:33;50.37;;;23.20;;
20721;SDS011;10522;52.198;9.890;2023-11-18T08:21:00;45.60;;;22.50;;
20721;SDS011;10522;52.198;9.890;2023-11-18T08:23:27;39.57;;;22.47;;
20721;SDS011;10522;52.198;9.890;2023-11-18T08:25:56;40.80;;;21.33;;
20721;SDS011;10522;52.198;9.890;2023-11-18T08:28:22;40.27;;;21.53;;
20721;SDS011;10522;52.198;9.890;2023-11-18T08:30:48;39.83;;;21.83;;
20721;SDS011;10522;52.198;9.890;2023-11-18T08:33:16;42.07;;;21.93;;
20721;SDS011;10522;52.198;9.890;2023-11-18T08:35:42;44.03;;;21.57;;
20721;SDS011;10522;52.198;9.890;2023-11-18T08:38:07;39.63;;;20.50;;
20721;SDS011;10522;52.198;9.890;2023-11-18T08:40:33;44.20;;;21.83;;
20721;SDS011;10522;52.198;9.890;2023-11-18T08:42:59;38.80;;;21.17;;
20721;SDS011;10522;52.198;9.890;2023-11-18T08:45:26;50.13;;;24.30;;
20721;SDS011;10522;52.198;9.890;2023-11-18T08:47:58;41.47;;;22.03;;
20721;SDS011;10522;52.198;9.890;2023-11-18T08:50:29;44.50;;;21.57;;
20721;SDS011;10522;52.198;9.890;2023-11-18T08:52:56;46.03;;;22.27;;
20721;SDS011;10522;52.198;9.890;2023-11-18T08:55:28;39.93;;;20.33;;
20721;SDS011;10522;52.198;9.890;2023-11-18T08:58:04;47.63;;;22.17;;
20721;SDS011;10522;52.198;9.890;2023-11-18T09:00:41;45.50;;;20.30;;
20721;SDS011;10522;52.198;9.890;2023-11-18T09:03:13;39.10;;;20.47;;
20721;SDS011;10522;52.198;9.890;2023-11-18T09:05:49;40.80;;;19.80;;
20721;SDS011;10522;52.198;9.890;2023-11-18T09:08:37;40.53;;;20.67;;
20721;SDS011;10522;52.198;9.890;2023-11-18T09:11:07;42.27;;;20.90;;
20721;SDS011;10522;52.198;9.890;2023-11-18T09:13:35;42.70;;;21.00;;
20721;SDS011;10522;52.198;9.890;2023-11-18T09:16:05;40.03;;;19.00;;
20721;SDS011;10522;52.198;9.890;2023-11-18T09:18:35;41.43;;;19.57;;
20721;SDS011;10522;52.198;9.890;2023-11-18T09:21:04;37.13;;;19.37;;
20721;SDS011;10522;52.198;9.890;2023-11-18T09:23:31;32.30;;;17.53;;
20721;SDS011;10522;52.198;9.890;2023-11-18T09:26:03;37.07;;;18.07;;
20721;SDS011;10522;52.198;9.890;2023-11-18T09:28:32;35.57;;;17.77;;
20721;SDS011;10522;52.198;9.890;2023-11-18T09:31:00;35.13;;;17.93;;
20721;SDS011;10522;52.198;9.890;2023-11-18T09:33:28;33.77;;;17.63;;
20721;SDS011;10522;52.198;9.890;2023-11-18T09:36:04;27.27;;;15.70;;
20721;SDS011;10522;52.198;9.890;2023-11-18T09:38:37;31.97;;;15.37;;
20721;SDS011;10522;52.198;9.890;2023-11-18T09:41:05;29.87;;;15.43;;
20721;SDS011;10522;52.198;9.890;2023-11-18T09:43:39;33.07;;;14.73;;
20721;SDS011;10522;52.198;9.890;2023-11-18T09:46:13;29.27;;;13.80;;
20721;SDS011;10522;52.198;9.890;2023-11-18T09:52:03;28.27;;;12.73;;
20721;SDS011;10522;52.198;9.890;2023-11-18T09:54:36;26.17;;;11.63;;
20721;SDS011;10522;52.198;9.890;2023-11-18T09:57:19;24.93;;;12.40;;
20721;SDS011;10522;52.198;9.890;2023-11-18T10:00:01;22.93;;;12.37;;
20721;SDS011;10522;52.198;9.890;2023-11-18T10:02:52;33.63;;;11.30;;
20721;SDS011;10522;52.198;9.890;2023-11-18T10:05:20;15.97;;;7.90;;
20721;SDS011;10522;52.198;9.890;2023-11-18T10:07:47;15.67;;;8.10;;
20721;SDS011;10522;52.198;9.890;2023-11-18T10:10:14;16.07;;;7.33;;
20721;SDS011;10522;52.198;9.890;2023-11-18T10:12:41;16.87;;;6.87;;
20721;SDS011;10522;52.198;9.890;2023-11-18T10:15:10;10.20;;;6.57;;
20721;SDS011;10522;52.198;9.890;2023-11-18T10:17:41;15.33;;;6.80;;
20721;SDS011;10522;52.198;9.890;2023-11-18T10:20:22;11.73;;;6.30;;
20721;SDS011;10522;52.198;9.890;2023-11-18T10:23:09;11.50;;;6.43;;
20721;SDS011;10522;52.198;9.890;2023-11-18T10:25:45;14.63;;;7.40;;
20721;SDS011;10522;52.198;9.890;2023-11-18T10:30:57;14.33;;;6.63;;
20721;SDS011;10522;52.198;9.890;2023-11-18T10:33:26;13.67;;;6.33;;
20721;SDS011;10522;52.198;9.890;2023-11-18T10:35:55;15.40;;;6.60;;
20721;SDS011;10522;52.198;9.890;2023-11-18T10:38:22;15.13;;;7.23;;
20721;SDS011;10522;52.198;9.890;2023-11-18T10:40:53;10.70;;;6.63;;
20721;SDS011;10522;52.198;9.890;2023-11-18T10:43:23;15.13;;;7.43;;
20721;SDS011;10522;52.198;9.890;2023-11-18T10:46:07;12.73;;;6.27;;
20721;SDS011;10522;52.198;9.890;2023-11-18T10:48:47;12.53;;;6.43;;
20721;SDS011;10522;52.198;9.890;2023-11-18T10:51:20;12.43;;;6.00;;
20721;SDS011;10522;52.198;9.890;2023-11-18T10:53:49;11.13;;;6.30;;
20721;SDS011;10522;52.198;9.890;2023-11-18T10:56:21;13.33;;;6.27;;
20721;SDS011;10522;52.198;9.890;2023-11-18T10:59:04;14.43;;;7.10;;
20721;SDS011;10522;52.198;9.890;2023-11-18T11:01:34;14.60;;;6.53;;
20721;SDS011;10522;52.198;9.890;2023-11-18T11:04:07;14.87;;;6.17;;
20721;SDS011;10522;52.198;9.890;2023-11-18T11:06:39;12.10;;;5.87;;
20721;SDS011;10522;52.198;9.890;2023-11-18T11:09:07;12.07;;;6.07;;
20721;SDS011;10522;52.198;9.890;2023-11-18T11:11:49;16.17;;;8.43;;
20721;SDS011;10522;52.198;9.890;2023-11-18T11:14:37;10.83;;;5.90;;
20721;SDS011;10522;52.198;9.890;2023-11-18T11:17:11;15.07;;;6.17;;
20721;SDS011;10522;52.198;9.890;2023-11-18T11:31:42;13.37;;;6.47;;
20721;SDS011;10522;52.198;9.890;2023-11-18T11:34:18;12.60;;;6.40;;
20721;SDS011;10522;52.198;9.890;2023-11-18T11:36:48;11.47;;;6.33;;
20721;SDS011;10522;52.198;9.890;2023-11-18T11:39:16;11.53;;;6.10;;
20721;SDS011;10522;52.198;9.890;2023-11-18T11:41:50;11.77;;;5.80;;
20721;SDS011;10522;52.198;9.890;2023-11-18T11:44:17;9.50;;;5.90;;
20721;SDS011;10522;52.198;9.890;2023-11-18T11:46:46;10.00;;;5.70;;
20721;SDS011;10522;52.198;9.890;2023-11-18T11:49:18;12.73;;;6.67;;
20721;SDS011;10522;52.198;9.890;2023-11-18T11:54:43;11.00;;;5.37;;
20721;SDS011;10522;52.198;9.890;2023-11-18T11:57:14;8.37;;;5.47;;
20721;SDS011;10522;52.198;9.890;2023-11-18T12:02:18;12.00;;;5.93;;
20721;SDS011;10522;52.198;9.890;2023-11-18T12:04:51;11.40;;;5.40;;
20721;SDS011;10522;52.198;9.890;2023-11-18T12:07:22;9.67;;;5.93;;
20721;SDS011;10522;52.198;9.890;2023-11-18T12:09:55;8.70;;;5.80;;
20721;SDS011;10522;52.198;9.890;2023-11-18T12:12:24;10.37;;;5.67;;
20721;SDS011;10522;52.198;9.890;2023-11-18T12:14:55;12.00;;;5.63;;
20721;SDS011;10522;52.198;9.890;2023-11-18T12:23:07;9.53;;;5.27;;
20721;SDS011;10522;52.198;9.890;2023-11-18T12:25:46;7.83;;;5.67;;
20721;SDS011;10522;52.198;9.890;2023-11-18T12:28:19;11.83;;;5.87;;
20721;SDS011;10522;52.198;9.890;2023-11-18T12:30:46;7.93;;;5.40;;
20721;SDS011;10522;52.198;9.890;2023-11-18T12:33:22;11.03;;;6.30;;
20721;SDS011;10522;52.198;9.890;2023-11-18T12:38:26;14.13;;;5.67;;
20721;SDS011;10522;52.198;9.890;2023-11-18T12:41:32;10.17;;;5.03;;
20721;SDS011;10522;52.198;9.890;2023-11-18T12:47:05;11.10;;;5.30;;
20721;SDS011;10522;52.198;9.890;2023-11-18T12:49:43;7.90;;;4.60;;
20721;SDS011;10522;52.198;9.890;2023-11-18T12:52:13;5.57;;;4.20;;
20721;SDS011;10522;52.198;9.890;2023-11-18T12:54:40;5.47;;;4.37;;
20721;SDS011;10522;52.198;9.890;2023-11-18T12:57:09;8.17;;;5.23;;
20721;SDS011;10522;52.198;9.890;2023-11-18T12:59:39;8.37;;;5.70;;
20721;SDS011;10522;52.198;9.890;2023-11-18T13:02:09;6.73;;;4.90;;
20721;SDS011;10522;52.198;9.890;2023-11-18T13:04:39;12.47;;;5.80;;
20721;SDS011;10522;52.198;9.890;2023-11-18T13:07:06;8.53;;;5.17;;
20721;SDS011;10522;52.198;9.890;2023-11-18T13:09:36;10.23;;;5.50;;
20721;SDS011;10522;52.198;9.890;2023-11-18T13:12:04;11.10;;;6.50;;
20721;SDS011;10522;52.198;9.890;2023-11-18T13:14:33;10.03;;;5.23;;
20721;SDS011;10522;52.198;9.890;2023-11-18T13:17:03;9.93;;;5.87;;
20721;SDS011;10522;52.198;9.890;2023-11-18T13:19:31;8.40;;;5.30;;
20721;SDS011;10522;52.198;9.890;2023-11-18T13:22:00;9.20;;;5.23;;
20721;SDS011;10522;52.198;9.890;2023-11-18T13:24:28;11.50;;;6.50;;
20721;SDS011;10522;52.198;9.890;2023-11-18T13:26:57;8.10;;;5.43;;
20721;SDS011;10522;52.198;9.890;2023-11-18T13:29:28;6.20;;;4.93;;
20721;SDS011;10522;52.198;9.890;2023-11-18T13:31:54;8.50;;;4.97;;
20721;SDS011;10522;52.198;9.890;2023-11-18T13:34:21;9.93;;;6.10;;
20721;SDS011;10522;52.198;9.890;2023-11-18T13:36:47;11.47;;;6.03;;
20721;SDS011;10522;52.198;9.890;2023-11-18T13:39:16;10.87;;;6.07;;
20721;SDS011;10522;52.198;9.890;2023-11-18T13:41:43;12.07;;;5.80;;
20721;SDS011;10522;52.198;9.890;2023-11-18T13:44:10;7.90;;;4.70;;
20721;SDS011;10522;52.198;9.890;2023-11-18T13:46:38;8.87;;;5.27;;
20721;SDS011;10522;52.198;9.890;2023-11-18T13:49:05;14.40;;;5.20;;
20721;SDS011;10522;52.198;9.890;2023-11-18T13:51:31;8.77;;;5.27;;
20721;SDS011;10522;52.198;9.890;2023-11-18T13:53:58;9.33;;;5.40;;
20721;SDS011;10522;52.198;9.890;2023-11-18T13:56:24;10.03;;;6.17;;
20721;SDS011;10522;52.198;9.890;2023-11-18T13:58:52;12.40;;;5.00;;
20721;SDS011;10522;52.198;9.890;2023-11-18T14:01:19;7.27;;;4.67;;
20721;SDS011;10522;52.198;9.890;2023-11-18T14:03:46;9.03;;;5.23;;
20721;SDS011;10522;52.198;9.890;2023-11-18T14:06:13;7.07;;;4.83;;
20721;SDS011;10522;52.198;9.890;2023-11-18T14:08:42;9.77;;;4.83;;
20721;SDS011;10522;52.198;9.890;2023-11-18T14:11:08;8.47;;;5.27;;
20721;SDS011;10522;52.198;9.890;2023-11-18T14:13:34;8.30;;;5.23;;
20721;SDS011;10522;52.198;9.890;2023-11-18T14:16:03;8.87;;;5.80;;
20721;SDS011;10522;52.198;9.890;2023-11-18T14:18:34;7.57;;;4.70;;
20721;SDS011;10522;52.198;9.890;2023-11-18T14:21:01;10.07;;;5.50;;
20721;SDS011;10522;52.198;9.890;2023-11-18T14:23:27;8.50;;;4.97;;
20721;SDS011;10522;52.198;9.890;2023-11-18T14:25:52;8.57;;;5.53;;
20721;SDS011;10522;52.198;9.890;2023-11-18T14:28:18;9.50;;;5.70;;
20721;SDS011;10522;52.198;9.890;2023-11-18T14:30:44;7.07;;;5.03;;
20721;SDS011;10522;52.198;9.890;2023-11-18T14:33:10;8.50;;;4.60;;
20721;SDS011;10522;52.198;9.890;2023-11-18T14:35:36;9.03;;;5.33;;
20721;SDS011;10522;52.198;9.890;2023-11-18T14:38:02;11.83;;;5.67;;
20721;SDS011;10522;52.198;9.890;2023-11-18T14:40:28;8.27;;;4.93;;
20721;SDS011;10522;52.198;9.890;2023-11-18T14:42:54;9.37;;;5.73;;
20721;SDS011;10522;52.198;9.890;2023-11-18T14:45:20;10.93;;;5.63;;
20721;SDS011;10522;52.198;9.890;2023-11-18T14:47:46;11.27;;;5.47;;
20721;SDS011;10522;52.198;9.890;2023-11-18T14:50:19;7.87;;;4.87;;
20721;SDS011;10522;52.198;9.890;2023-11-18T14:52:49;7.50;;;5.30;;
20721;SDS011;10522;52.198;9.890;2023-11-18T14:55:26;9.03;;;5.60;;
20721;SDS011;10522;52.198;9.890;2023-11-18T14:57:51;11.40;;;5.53;;
20721;SDS011;10522;52.198;9.890;2023-11-18T15:00:17;7.53;;;5.70;;
20721;SDS011;10522;52.198;9.890;2023-11-18T15:02:52;12.93;;;6.60;;
20721;SDS011;10522;52.198;9.890;2023-11-18T15:05:20;10.40;;;6.27;;
20721;SDS011;10522;52.198;9.890;2023-11-18T15:10:13;8.13;;;5.47;;
20721;SDS011;10522;52.198;9.890;2023-11-18T15:12:49;10.90;;;6.00;;
20721;SDS011;10522;52.198;9.890;2023-11-18T15:15:23;10.77;;;6.47;;
20721;SDS011;10522;52.198;9.890;2023-11-18T15:17:56;11.83;;;7.13;;
20721;SDS011;10522;52.198;9.890;2023-11-18T15:20:24;9.97;;;6.77;;
20721;SDS011;10522;52.198;9.890;2023-11-18T15:22:50;9.13;;;5.60;;